sensor_id;sensor_type;location;lat;lon;timestamp;P1;durP1;ratioP1;P2;durP2;ratioP2
10191;SDS011;17580;50.850;4.504;2023-06-14T00:01:10;4.13;;;3.93;;
10191;SDS011;17580;50.850;4.504;2023-06-14T00:03:40;5.07;;;4.67;;
10191;SDS011;17580;50.850;4.504;2023-06-14T00:06:07;5.00;;;4.43;;
10191;SDS011;17580;50.850;4.504;2023-06-14T00:08:34;5.27;;;4.80;;
10191;SDS011;17580;50.850;4.504;2023-06-14T00:11:01;4.60;;;4.30;;
10191;SDS011;17580;50.850;4.504;2023-06-14T00:13:29;4.73;;;4.10;;
10191;SDS011;17580;50.850;4.504;2023-06-14T00:15:56;4.70;;;4.30;;
10191;SDS011;17580;50.850;4.504;2023-06-14T00:18:23;4.07;;;3.70;;
10191;SDS011;17580;50.850;4.504;2023-06-14T00:20:55;12.67;;;4.30;;
10191;SDS011;17580;50.850;4.504;2023-06-14T00:23:23;4.53;;;4.07;;
10191;SDS011;17580;50.850;4.504;2023-06-14T00:25:50;4.70;;;4.30;;
10191;SDS011;17580;50.850;4.504;2023-06-14T00:28:17;4.80;;;4.40;;
10191;SDS011;17580;50.850;4.504;2023-06-14T00:30:45;4.43;;;4.03;;
10191;SDS011;17580;50.850;4.504;2023-06-14T00:33:12;4.67;;;4.27;;
10191;SDS011;17580;50.850;4.504;2023-06-14T00:35:40;4.23;;;4.00;;
10191;SDS011;17580;50.850;4.504;2023-06-14T00:38:08;4.77;;;4.47;;
10191;SDS011;17580;50.850;4.504;2023-06-14T00:40:36;4.90;;;4.50;;
10191;SDS011;17580;50.850;4.504;2023-06-14T00:43:03;5.70;;;4.90;;
10191;SDS011;17580;50.850;4.504;2023-06-14T00:45:31;5.13;;;4.67;;
10191;SDS011;17580;50.850;4.504;2023-06-14T00:48:01;4.83;;;4.43;;
10191;SDS011;17580;50.850;4.504;2023-06-14T00:50:28;5.17;;;4.70;;
10191;SDS011;17580;50.850;4.504;2023-06-14T00:52:57;5.37;;;4.93;;
10191;SDS011;17580;50.850;4.504;2023-06-14T00:55:26;5.07;;;4.67;;
10191;SDS011;17580;50.850;4.504;2023-06-14T00:57:53;4.97;;;4.57;;
10191;SDS011;17580;50.850;4.504;2023-06-14T01:00:21;6.13;;;4.97;;
10191;SDS011;17580;50.850;4.504;2023-06-14T01:02:48;4.33;;;4.13;;
10191;SDS011;17580;50.850;4.504;2023-06-14T01:05:15;5.03;;;4.60;;
10191;SDS011;17580;50.850;4.504;2023-06-14T01:07:46;5.47;;;4.73;;
10191;SDS011;17580;50.850;4.504;2023-06-14T01:10:18;5.50;;;4.73;;
10191;SDS011;17580;50.850;4.504;2023-06-14T01:12:50;5.30;;;4.80;;
10191;SDS011;17580;50.850;4.504;2023-06-14T01:15:20;5.83;;;4.73;;
10191;SDS011;17580;50.850;4.504;2023-06-14T01:17:48;5.33;;;4.83;;
10191;SDS011;17580;50.850;4.504;2023-06-14T01:20:16;6.33;;;4.97;;
10191;SDS011;17580;50.850;4.504;2023-06-14T01:22:50;5.00;;;4.50;;
10191;SDS011;17580;50.850;4.504;2023-06-14T01:25:18;6.07;;;4.33;;
10191;SDS011;17580;50.850;4.504;2023-06-14T01:27:48;9.07;;;4.77;;
10191;SDS011;17580;50.850;4.504;2023-06-14T01:30:15;4.40;;;3.90;;
10191;SDS011;17580;50.850;4.504;2023-06-14T01:32:43;5.77;;;4.47;;
10191;SDS011;17580;50.850;4.504;2023-06-14T01:35:11;4.77;;;4.20;;
10191;SDS011;17580;50.850;4.504;2023-06-14T01:37:38;4.77;;;4.37;;
10191;SDS011;17580;50.850;4.504;2023-06-14T01:40:08;5.07;;;4.60;;
10191;SDS011;17580;50.850;4.504;2023-06-14T01:42:36;4.50;;;4.17;;
10191;SDS011;17580;50.850;4.504;2023-06-14T01:45:05;4.50;;;4.20;;
10191;SDS011;17580;50.850;4.504;2023-06-14T01:47:32;4.90;;;4.37;;
10191;SDS011;17580;50.850;4.504;2023-06-14T01:50:01;4.83;;;4.53;;
10191;SDS011;17580;50.850;4.504;2023-06-14T01:52:29;4.80;;;4.40;;
10191;SDS011;17580;50.850;4.504;2023-06-14T01:54:56;4.50;;;4.10;;
10191;SDS011;17580;50.850;4.504;2023-06-14T01:57:29;5.43;;;4.70;;
10191;SDS011;17580;50.850;4.504;2023-06-14T01:59:56;5.07;;;4.73;;
10191;SDS011;17580;50.850;4.504;2023-06-14T02:02:23;8.00;;;5.00;;
10191;SDS011;17580;50.850;4.504;2023-06-14T02:04:51;5.33;;;4.93;;
10191;SDS011;17580;50.850;4.504;2023-06-14T02:07:22;6.00;;;5.40;;
10191;SDS011;17580;50.850;4.504;2023-06-14T02:09:49;5.43;;;4.93;;
10191;SDS011;17580;50.850;4.504;2023-06-14T02:12:17;5.17;;;4.77;;
10191;SDS011;17580;50.850;4.504;2023-06-14T02:14:45;5.27;;;4.77;;
10191;SDS011;17580;50.850;4.504;2023-06-14T02:17:13;5.40;;;5.00;;
10191;SDS011;17580;50.850;4.504;2023-06-14T02:19:41;5.33;;;4.93;;
10191;SDS011;17580;50.850;4.504;2023-06-14T02:22:08;5.50;;;5.10;;
10191;SDS011;17580;50.850;4.504;2023-06-14T02:24:35;5.63;;;5.23;;
10191;SDS011;17580;50.850;4.504;2023-06-14T02:27:03;5.20;;;4.80;;
10191;SDS011;17580;50.850;4.504;2023-06-14T02:29:31;4.97;;;4.60;;
10191;SDS011;17580;50.850;4.504;2023-06-14T02:32:00;4.60;;;4.20;;
10191;SDS011;17580;50.850;4.504;2023-06-14T02:34:27;5.43;;;4.97;;
10191;SDS011;17580;50.850;4.504;2023-06-14T02:36:54;5.03;;;4.73;;
10191;SDS011;17580;50.850;4.504;2023-06-14T02:39:22;5.27;;;4.80;;
10191;SDS011;17580;50.850;4.504;2023-06-14T02:41:49;4.87;;;4.50;;
10191;SDS011;17580;50.850;4.504;2023-06-14T02:44:17;5.67;;;5.17;;
10191;SDS011;17580;50.850;4.504;2023-06-14T02:46:45;5.43;;;5.00;;
10191;SDS011;17580;50.850;4.504;2023-06-14T02:49:13;6.37;;;5.07;;
10191;SDS011;17580;50.850;4.504;2023-06-14T02:51:41;5.27;;;4.73;;
10191;SDS011;17580;50.850;4.504;2023-06-14T02:54:08;8.97;;;4.53;;
10191;SDS011;17580;50.850;4.504;2023-06-14T02:56:35;4.97;;;4.60;;
10191;SDS011;17580;50.850;4.504;2023-06-14T02:59:02;5.17;;;4.77;;
10191;SDS011;17580;50.850;4.504;2023-06-14T03:01:29;4.47;;;4.17;;
10191;SDS011;17580;50.850;4.504;2023-06-14T03:03:59;4.90;;;4.50;;
10191;SDS011;17580;50.850;4.504;2023-06-14T03:06:29;5.40;;;4.90;;
10191;SDS011;17580;50.850;4.504;2023-06-14T03:08:57;4.53;;;4.23;;
10191;SDS011;17580;50.850;4.504;2023-06-14T03:11:26;7.03;;;5.87;;
10191;SDS011;17580;50.850;4.504;2023-06-14T03:13:53;4.90;;;4.40;;
10191;SDS011;17580;50.850;4.504;2023-06-14T03:16:21;6.73;;;4.60;;
10191;SDS011;17580;50.850;4.504;2023-06-14T03:18:49;6.10;;;5.60;;
10191;SDS011;17580;50.850;4.504;2023-06-14T03:21:16;5.90;;;5.30;;
10191;SDS011;17580;50.850;4.504;2023-06-14T03:23:46;5.67;;;5.17;;
10191;SDS011;17580;50.850;4.504;2023-06-14T03:26:13;5.03;;;4.63;;
10191;SDS011;17580;50.850;4.504;2023-06-14T03:28:43;5.40;;;5.00;;
10191;SDS011;17580;50.850;4.504;2023-06-14T03:31:10;5.83;;;5.33;;
10191;SDS011;17580;50.850;4.504;2023-06-14T03:33:37;6.00;;;5.50;;
10191;SDS011;17580;50.850;4.504;2023-06-14T03:36:04;5.70;;;5.23;;
10191;SDS011;17580;50.850;4.504;2023-06-14T03:38:32;5.43;;;5.03;;
10191;SDS011;17580;50.850;4.504;2023-06-14T03:41:01;5.20;;;4.80;;
10191;SDS011;17580;50.850;4.504;2023-06-14T03:43:28;6.10;;;5.50;;
10191;SDS011;17580;50.850;4.504;2023-06-14T03:45:56;6.77;;;5.10;;
10191;SDS011;17580;50.850;4.504;2023-06-14T03:48:23;5.70;;;5.20;;
10191;SDS011;17580;50.850;4.504;2023-06-14T03:50:51;5.27;;;4.87;;
10191;SDS011;17580;50.850;4.504;2023-06-14T03:53:20;6.17;;;5.57;;
10191;SDS011;17580;50.850;4.504;2023-06-14T03:55:48;7.03;;;5.73;;
10191;SDS011;17580;50.850;4.504;2023-06-14T03:58:18;7.03;;;5.07;;
10191;SDS011;17580;50.850;4.504;2023-06-14T04:00:46;6.07;;;5.57;;
10191;SDS011;17580;50.850;4.504;2023-06-14T04:03:13;8.37;;;5.37;;
10191;SDS011;17580;50.850;4.504;2023-06-14T04:05:41;6.13;;;4.93;;
10191;SDS011;17580;50.850;4.504;2023-06-14T04:08:09;5.63;;;5.13;;
10191;SDS011;17580;50.850;4.504;2023-06-14T04:10:39;5.47;;;5.07;;
10191;SDS011;17580;50.850;4.504;2023-06-14T04:13:07;5.50;;;4.80;;
10191;SDS011;17580;50.850;4.504;2023-06-14T04:15:38;5.60;;;5.20;;
10191;SDS011;17580;50.850;4.504;2023-06-14T04:18:09;5.43;;;5.03;;
10191;SDS011;17580;50.850;4.504;2023-06-14T04:20:36;4.73;;;4.40;;
10191;SDS011;17580;50.850;4.504;2023-06-14T04:23:13;5.23;;;4.83;;
10191;SDS011;17580;50.850;4.504;2023-06-14T04:25:40;7.60;;;4.83;;
10191;SDS011;17580;50.850;4.504;2023-06-14T04:28:10;5.50;;;5.10;;
10191;SDS011;17580;50.850;4.504;2023-06-14T04:30:38;7.13;;;4.97;;
10191;SDS011;17580;50.850;4.504;2023-06-14T04:33:06;5.20;;;4.80;;
10191;SDS011;17580;50.850;4.504;2023-06-14T04:35:35;6.60;;;5.37;;
10191;SDS011;17580;50.850;4.504;2023-06-14T04:38:02;5.80;;;5.20;;
10191;SDS011;17580;50.850;4.504;2023-06-14T04:40:34;5.63;;;5.10;;
10191;SDS011;17580;50.850;4.504;2023-06-14T04:43:08;5.80;;;5.17;;
10191;SDS011;17580;50.850;4.504;2023-06-14T04:45:39;5.10;;;4.70;;
10191;SDS011;17580;50.850;4.504;2023-06-14T04:48:10;5.40;;;4.90;;
10191;SDS011;17580;50.850;4.504;2023-06-14T04:50:37;7.17;;;5.27;;
10191;SDS011;17580;50.850;4.504;2023-06-14T04:53:05;5.87;;;5.40;;
10191;SDS011;17580;50.850;4.504;2023-06-14T04:55:32;5.57;;;5.00;;
10191;SDS011;17580;50.850;4.504;2023-06-14T04:57:59;5.80;;;5.20;;
10191;SDS011;17580;50.850;4.504;2023-06-14T05:00:27;5.50;;;5.00;;
10191;SDS011;17580;50.850;4.504;2023-06-14T05:02:56;5.37;;;5.00;;
10191;SDS011;17580;50.850;4.504;2023-06-14T05:05:24;7.10;;;6.07;;
10191;SDS011;17580;50.850;4.504;2023-06-14T05:07:51;8.07;;;5.00;;
10191;SDS011;17580;50.850;4.504;2023-06-14T05:10:18;5.83;;;5.20;;
10191;SDS011;17580;50.850;4.504;2023-06-14T05:12:45;5.50;;;4.70;;
10191;SDS011;17580;50.850;4.504;2023-06-14T05:15:13;5.50;;;4.67;;
10191;SDS011;17580;50.850;4.504;2023-06-14T05:17:41;5.00;;;4.60;;
10191;SDS011;17580;50.850;4.504;2023-06-14T05:20:09;5.80;;;5.30;;
10191;SDS011;17580;50.850;4.504;2023-06-14T05:22:37;5.00;;;4.53;;
10191;SDS011;17580;50.850;4.504;2023-06-14T05:25:05;5.97;;;5.40;;
10191;SDS011;17580;50.850;4.504;2023-06-14T05:27:32;5.40;;;4.90;;
10191;SDS011;17580;50.850;4.504;2023-06-14T05:30:02;5.53;;;4.83;;
10191;SDS011;17580;50.850;4.504;2023-06-14T05:32:30;5.70;;;5.07;;
10191;SDS011;17580;50.850;4.504;2023-06-14T05:34:57;4.90;;;4.43;;
10191;SDS011;17580;50.850;4.504;2023-06-14T05:37:26;5.97;;;5.00;;
10191;SDS011;17580;50.850;4.504;2023-06-14T05:39:53;5.43;;;4.93;;
10191;SDS011;17580;50.850;4.504;2023-06-14T05:42:20;6.40;;;5.80;;
10191;SDS011;17580;50.850;4.504;2023-06-14T05:44:47;5.70;;;4.90;;
10191;SDS011;17580;50.850;4.504;2023-06-14T05:47:15;7.43;;;5.30;;
10191;SDS011;17580;50.850;4.504;2023-06-14T05:49:42;5.47;;;5.07;;
10191;SDS011;17580;50.850;4.504;2023-06-14T05:52:09;6.97;;;5.90;;
10191;SDS011;17580;50.850;4.504;2023-06-14T05:54:39;5.50;;;5.10;;
10191;SDS011;17580;50.850;4.504;2023-06-14T05:57:06;7.93;;;5.27;;
10191;SDS011;17580;50.850;4.504;2023-06-14T05:59:34;6.13;;;5.53;;
10191;SDS011;17580;50.850;4.504;2023-06-14T06:02:01;5.50;;;5.10;;
10191;SDS011;17580;50.850;4.504;2023-06-14T06:04:28;7.43;;;5.40;;
10191;SDS011;17580;50.850;4.504;2023-06-14T06:06:56;5.80;;;5.30;;
10191;SDS011;17580;50.850;4.504;2023-06-14T06:09:23;5.17;;;4.77;;
10191;SDS011;17580;50.850;4.504;2023-06-14T06:11:51;9.03;;;5.73;;
10191;SDS011;17580;50.850;4.504;2023-06-14T06:14:19;6.10;;;4.77;;
10191;SDS011;17580;50.850;4.504;2023-06-14T06:16:46;5.10;;;4.57;;
10191;SDS011;17580;50.850;4.504;2023-06-14T06:19:13;5.03;;;4.60;;
10191;SDS011;17580;50.850;4.504;2023-06-14T06:21:40;8.23;;;6.70;;
10191;SDS011;17580;50.850;4.504;2023-06-14T06:24:08;6.20;;;5.60;;
10191;SDS011;17580;50.850;4.504;2023-06-14T06:26:35;6.03;;;4.60;;
10191;SDS011;17580;50.850;4.504;2023-06-14T06:29:04;5.80;;;5.30;;
10191;SDS011;17580;50.850;4.504;2023-06-14T06:31:31;5.97;;;4.80;;
10191;SDS011;17580;50.850;4.504;2023-06-14T06:33:58;5.33;;;4.93;;
10191;SDS011;17580;50.850;4.504;2023-06-14T06:36:25;4.97;;;4.47;;
10191;SDS011;17580;50.850;4.504;2023-06-14T06:38:53;6.67;;;5.20;;
10191;SDS011;17580;50.850;4.504;2023-06-14T06:41:20;5.60;;;4.93;;
10191;SDS011;17580;50.850;4.504;2023-06-14T06:43:47;5.20;;;4.70;;
10191;SDS011;17580;50.850;4.504;2023-06-14T06:46:16;6.00;;;5.33;;
10191;SDS011;17580;50.850;4.504;2023-06-14T06:48:44;4.83;;;4.50;;
10191;SDS011;17580;50.850;4.504;2023-06-14T06:51:11;5.83;;;5.20;;
10191;SDS011;17580;50.850;4.504;2023-06-14T06:53:39;7.63;;;5.53;;
10191;SDS011;17580;50.850;4.504;2023-06-14T06:56:06;6.50;;;5.90;;
10191;SDS011;17580;50.850;4.504;2023-06-14T06:58:33;5.87;;;4.03;;
10191;SDS011;17580;50.850;4.504;2023-06-14T07:01:00;4.83;;;4.47;;
10191;SDS011;17580;50.850;4.504;2023-06-14T07:03:29;6.63;;;5.30;;
10191;SDS011;17580;50.850;4.504;2023-06-14T07:05:56;5.80;;;5.30;;
10191;SDS011;17580;50.850;4.504;2023-06-14T07:08:24;6.37;;;5.60;;
10191;SDS011;17580;50.850;4.504;2023-06-14T07:10:52;5.47;;;4.97;;
10191;SDS011;17580;50.850;4.504;2023-06-14T07:13:19;8.33;;;5.47;;
10191;SDS011;17580;50.850;4.504;2023-06-14T07:15:46;5.60;;;4.53;;
10191;SDS011;17580;50.850;4.504;2023-06-14T07:18:13;7.80;;;5.50;;
10191;SDS011;17580;50.850;4.504;2023-06-14T07:20:42;5.30;;;4.80;;
10191;SDS011;17580;50.850;4.504;2023-06-14T07:23:09;6.10;;;5.17;;
10191;SDS011;17580;50.850;4.504;2023-06-14T07:25:37;5.27;;;4.87;;
10191;SDS011;17580;50.850;4.504;2023-06-14T07:28:04;4.93;;;4.63;;
10191;SDS011;17580;50.850;4.504;2023-06-14T07:30:32;8.67;;;5.10;;
10191;SDS011;17580;50.850;4.504;2023-06-14T07:32:59;5.33;;;4.93;;
10191;SDS011;17580;50.850;4.504;2023-06-14T07:35:27;8.27;;;5.10;;
10191;SDS011;17580;50.850;4.504;2023-06-14T07:37:55;5.30;;;4.90;;
10191;SDS011;17580;50.850;4.504;2023-06-14T07:40:23;5.37;;;4.87;;
10191;SDS011;17580;50.850;4.504;2023-06-14T07:42:50;4.87;;;4.47;;
10191;SDS011;17580;50.850;4.504;2023-06-14T07:45:19;5.13;;;4.83;;
10191;SDS011;17580;50.850;4.504;2023-06-14T07:47:46;4.93;;;4.53;;
10191;SDS011;17580;50.850;4.504;2023-06-14T07:50:13;6.80;;;5.07;;
10191;SDS011;17580;50.850;4.504;2023-06-14T07:52:40;5.53;;;5.13;;
10191;SDS011;17580;50.850;4.504;2023-06-14T07:55:09;5.53;;;4.87;;
10191;SDS011;17580;50.850;4.504;2023-06-14T07:57:37;5.57;;;5.07;;
10191;SDS011;17580;50.850;4.504;2023-06-14T08:00:05;7.73;;;5.27;;
10191;SDS011;17580;50.850;4.504;2023-06-14T08:02:33;5.53;;;4.93;;
10191;SDS011;17580;50.850;4.504;2023-06-14T08:05:00;6.77;;;5.00;;
10191;SDS011;17580;50.850;4.504;2023-06-14T08:07:27;8.97;;;5.13;;
10191;SDS011;17580;50.850;4.504;2023-06-14T08:09:55;8.70;;;5.60;;
10191;SDS011;17580;50.850;4.504;2023-06-14T08:12:23;5.77;;;4.80;;
10191;SDS011;17580;50.850;4.504;2023-06-14T08:14:51;5.93;;;5.33;;
10191;SDS011;17580;50.850;4.504;2023-06-14T08:17:18;5.60;;;4.97;;
10191;SDS011;17580;50.850;4.504;2023-06-14T08:19:45;5.30;;;4.80;;
10191;SDS011;17580;50.850;4.504;2023-06-14T08:22:12;6.20;;;5.70;;
10191;SDS011;17580;50.850;4.504;2023-06-14T08:24:39;5.80;;;5.40;;
10191;SDS011;17580;50.850;4.504;2023-06-14T08:27:07;6.30;;;5.10;;
10191;SDS011;17580;50.850;4.504;2023-06-14T08:29:36;5.43;;;5.03;;
10191;SDS011;17580;50.850;4.504;2023-06-14T08:32:05;5.70;;;5.23;;
10191;SDS011;17580;50.850;4.504;2023-06-14T08:34:32;5.50;;;5.10;;
10191;SDS011;17580;50.850;4.504;2023-06-14T08:37:00;5.27;;;4.87;;
10191;SDS011;17580;50.850;4.504;2023-06-14T08:39:27;5.73;;;5.23;;
10191;SDS011;17580;50.850;4.504;2023-06-14T08:41:54;6.50;;;6.00;;
10191;SDS011;17580;50.850;4.504;2023-06-14T08:44:23;6.03;;;5.27;;
10191;SDS011;17580;50.850;4.504;2023-06-14T08:46:52;6.03;;;5.53;;
10191;SDS011;17580;50.850;4.504;2023-06-14T08:49:20;5.50;;;5.10;;
10191;SDS011;17580;50.850;4.504;2023-06-14T08:51:48;6.20;;;5.13;;
10191;SDS011;17580;50.850;4.504;2023-06-14T08:54:17;6.87;;;5.80;;
10191;SDS011;17580;50.850;4.504;2023-06-14T08:56:45;6.20;;;5.60;;
10191;SDS011;17580;50.850;4.504;2023-06-14T08:59:13;5.57;;;5.07;;
10191;SDS011;17580;50.850;4.504;2023-06-14T09:01:41;6.77;;;6.00;;
10191;SDS011;17580;50.850;4.504;2023-06-14T09:04:11;9.77;;;6.37;;
10191;SDS011;17580;50.850;4.504;2023-06-14T09:06:39;6.17;;;5.20;;
10191;SDS011;17580;50.850;4.504;2023-06-14T09:09:06;8.10;;;5.13;;
10191;SDS011;17580;50.850;4.504;2023-06-14T09:11:34;7.57;;;5.37;;
10191;SDS011;17580;50.850;4.504;2023-06-14T09:14:02;6.73;;;5.73;;
10191;SDS011;17580;50.850;4.504;2023-06-14T09:16:31;8.77;;;6.33;;
10191;SDS011;17580;50.850;4.504;2023-06-14T09:18:58;6.53;;;5.33;;
10191;SDS011;17580;50.850;4.504;2023-06-14T09:21:27;5.17;;;4.73;;
10191;SDS011;17580;50.850;4.504;2023-06-14T09:23:55;5.80;;;5.40;;
10191;SDS011;17580;50.850;4.504;2023-06-14T09:26:22;13.43;;;6.03;;
10191;SDS011;17580;50.850;4.504;2023-06-14T09:28:50;5.83;;;5.27;;
10191;SDS011;17580;50.850;4.504;2023-06-14T09:31:18;6.40;;;5.80;;
10191;SDS011;17580;50.850;4.504;2023-06-14T09:33:46;6.55;;;5.55;;
10191;SDS011;17580;50.850;4.504;2023-06-14T09:36:14;7.45;;;5.68;;
10191;SDS011;17580;50.850;4.504;2023-06-14T09:38:45;8.35;;;5.60;;
10191;SDS011;17580;50.850;4.504;2023-06-14T09:41:18;6.35;;;5.75;;
10191;SDS011;17580;50.850;4.504;2023-06-14T09:43:46;11.85;;;5.63;;
10191;SDS011;17580;50.850;4.504;2023-06-14T09:46:14;7.13;;;5.63;;
10191;SDS011;17580;50.850;4.504;2023-06-14T09:48:42;6.28;;;5.70;;
10191;SDS011;17580;50.850;4.504;2023-06-14T09:51:10;5.75;;;5.25;;
10191;SDS011;17580;50.850;4.504;2023-06-14T09:53:40;5.97;;;5.57;;
10191;SDS011;17580;50.850;4.504;2023-06-14T09:56:09;6.60;;;5.70;;
10191;SDS011;17580;50.850;4.504;2023-06-14T09:58:37;7.03;;;5.38;;
10191;SDS011;17580;50.850;4.504;2023-06-14T10:01:06;5.80;;;5.35;;
10191;SDS011;17580;50.850;4.504;2023-06-14T10:03:38;5.70;;;5.30;;
10191;SDS011;17580;50.850;4.504;2023-06-14T10:06:06;4.97;;;4.22;;
10191;SDS011;17580;50.850;4.504;2023-06-14T10:08:35;5.70;;;5.22;;
10191;SDS011;17580;50.850;4.504;2023-06-14T10:11:03;5.75;;;5.25;;
10191;SDS011;17580;50.850;4.504;2023-06-14T10:13:32;5.32;;;4.82;;
10191;SDS011;17580;50.850;4.504;2023-06-14T10:16:02;4.80;;;4.40;;
10191;SDS011;17580;50.850;4.504;2023-06-14T10:21:18;4.93;;;4.20;;
10191;SDS011;17580;50.850;4.504;2023-06-14T10:23:47;4.95;;;3.60;;
10191;SDS011;17580;50.850;4.504;2023-06-14T10:26:19;8.88;;;4.22;;
10191;SDS011;17580;50.850;4.504;2023-06-14T10:28:56;5.25;;;4.03;;
10191;SDS011;17580;50.850;4.504;2023-06-14T10:31:32;4.50;;;4.10;;
10191;SDS011;17580;50.850;4.504;2023-06-14T10:34:06;4.00;;;3.70;;
10191;SDS011;17580;50.850;4.504;2023-06-14T10:36:33;5.80;;;4.10;;
10191;SDS011;17580;50.850;4.504;2023-06-14T10:39:01;4.43;;;4.10;;
10191;SDS011;17580;50.850;4.504;2023-06-14T10:41:31;4.13;;;3.70;;
10191;SDS011;17580;50.850;4.504;2023-06-14T10:46:54;6.53;;;3.92;;
10191;SDS011;17580;50.850;4.504;2023-06-14T10:49:36;6.80;;;4.50;;
10191;SDS011;17580;50.850;4.504;2023-06-14T10:52:07;4.13;;;3.65;;
10191;SDS011;17580;50.850;4.504;2023-06-14T10:54:34;4.15;;;3.95;;
10191;SDS011;17580;50.850;4.504;2023-06-14T10:57:01;4.18;;;3.90;;
10191;SDS011;17580;50.850;4.504;2023-06-14T10:59:29;3.92;;;3.60;;
10191;SDS011;17580;50.850;4.504;2023-06-14T11:01:58;6.65;;;4.68;;
10191;SDS011;17580;50.850;4.504;2023-06-14T11:04:31;5.20;;;4.75;;
10191;SDS011;17580;50.850;4.504;2023-06-14T11:07:03;4.25;;;3.85;;
10191;SDS011;17580;50.850;4.504;2023-06-14T11:09:44;4.22;;;3.75;;
10191;SDS011;17580;50.850;4.504;2023-06-14T11:12:14;4.88;;;4.47;;
10191;SDS011;17580;50.850;4.504;2023-06-14T11:14:42;4.50;;;4.07;;
10191;SDS011;17580;50.850;4.504;2023-06-14T11:17:13;5.30;;;4.28;;
10191;SDS011;17580;50.850;4.504;2023-06-14T11:19:41;4.25;;;3.83;;
10191;SDS011;17580;50.850;4.504;2023-06-14T11:22:08;4.13;;;3.70;;
10191;SDS011;17580;50.850;4.504;2023-06-14T11:24:35;5.38;;;4.28;;
10191;SDS011;17580;50.850;4.504;2023-06-14T11:27:02;4.20;;;3.90;;
10191;SDS011;17580;50.850;4.504;2023-06-14T11:29:31;4.22;;;3.83;;
10191;SDS011;17580;50.850;4.504;2023-06-14T11:31:58;4.28;;;3.97;;
10191;SDS011;17580;50.850;4.504;2023-06-14T11:34:27;3.75;;;3.55;;
10191;SDS011;17580;50.850;4.504;2023-06-14T11:36:54;3.95;;;3.65;;
10191;SDS011;17580;50.850;4.504;2023-06-14T11:39:24;4.10;;;3.80;;
10191;SDS011;17580;50.850;4.504;2023-06-14T11:41:52;4.35;;;3.95;;
10191;SDS011;17580;50.850;4.504;2023-06-14T11:44:20;5.28;;;4.43;;
10191;SDS011;17580;50.850;4.504;2023-06-14T11:46:47;7.95;;;4.85;;
10191;SDS011;17580;50.850;4.504;2023-06-14T11:49:15;4.53;;;4.22;;
10191;SDS011;17580;50.850;4.504;2023-06-14T11:51:44;4.68;;;4.00;;
10191;SDS011;17580;50.850;4.504;2023-06-14T11:54:11;6.63;;;4.45;;
10191;SDS011;17580;50.850;4.504;2023-06-14T11:56:38;4.43;;;4.13;;
10191;SDS011;17580;50.850;4.504;2023-06-14T11:59:06;5.30;;;4.03;;
10191;SDS011;17580;50.850;4.504;2023-06-14T12:01:35;6.18;;;4.40;;
10191;SDS011;17580;50.850;4.504;2023-06-14T12:04:03;4.00;;;3.70;;
10191;SDS011;17580;50.850;4.504;2023-06-14T12:06:31;3.70;;;3.50;;
10191;SDS011;17580;50.850;4.504;2023-06-14T12:09:04;4.93;;;3.55;;
10191;SDS011;17580;50.850;4.504;2023-06-14T12:11:38;4.15;;;3.80;;
10191;SDS011;17580;50.850;4.504;2023-06-14T12:14:05;4.10;;;3.80;;
10191;SDS011;17580;50.850;4.504;2023-06-14T12:16:33;4.07;;;3.72;;
10191;SDS011;17580;50.850;4.504;2023-06-14T12:19:01;4.28;;;3.95;;
10191;SDS011;17580;50.850;4.504;2023-06-14T12:21:28;3.67;;;3.45;;
10191;SDS011;17580;50.850;4.504;2023-06-14T12:23:55;4.30;;;3.95;;
10191;SDS011;17580;50.850;4.504;2023-06-14T12:26:24;4.18;;;3.88;;
10191;SDS011;17580;50.850;4.504;2023-06-14T12:28:53;5.45;;;3.90;;
10191;SDS011;17580;50.850;4.504;2023-06-14T12:31:20;4.28;;;3.92;;
10191;SDS011;17580;50.850;4.504;2023-06-14T12:33:48;4.07;;;3.42;;
10191;SDS011;17580;50.850;4.504;2023-06-14T12:36:15;4.57;;;3.90;;
10191;SDS011;17580;50.850;4.504;2023-06-14T12:38:42;3.90;;;3.47;;
10191;SDS011;17580;50.850;4.504;2023-06-14T12:41:11;8.35;;;3.30;;
10191;SDS011;17580;50.850;4.504;2023-06-14T12:43:40;4.57;;;3.97;;
10191;SDS011;17580;50.850;4.504;2023-06-14T12:46:08;4.20;;;3.80;;
10191;SDS011;17580;50.850;4.504;2023-06-14T12:48:35;4.35;;;3.58;;
10191;SDS011;17580;50.850;4.504;2023-06-14T12:51:02;5.20;;;3.45;;
10191;SDS011;17580;50.850;4.504;2023-06-14T12:53:30;5.78;;;3.97;;
10191;SDS011;17580;50.850;4.504;2023-06-14T12:55:57;6.78;;;3.90;;
10191;SDS011;17580;50.850;4.504;2023-06-14T12:58:24;3.90;;;3.60;;
10191;SDS011;17580;50.850;4.504;2023-06-14T13:00:53;5.82;;;3.63;;
10191;SDS011;17580;50.850;4.504;2023-06-14T13:03:20;4.60;;;3.35;;
10191;SDS011;17580;50.850;4.504;2023-06-14T13:05:48;6.07;;;3.28;;
10191;SDS011;17580;50.850;4.504;2023-06-14T13:08:15;3.60;;;3.30;;
10191;SDS011;17580;50.850;4.504;2023-06-14T13:10:43;4.00;;;3.10;;
10191;SDS011;17580;50.850;4.504;2023-06-14T13:13:10;5.45;;;3.30;;
10191;SDS011;17580;50.850;4.504;2023-06-14T13:15:38;3.67;;;2.97;;
10191;SDS011;17580;50.850;4.504;2023-06-14T13:18:07;3.72;;;3.42;;
10191;SDS011;17580;50.850;4.504;2023-06-14T13:20:36;4.43;;;3.17;;
10191;SDS011;17580;50.850;4.504;2023-06-14T13:23:06;5.43;;;3.58;;
10191;SDS011;17580;50.850;4.504;2023-06-14T13:25:34;3.20;;;3.00;;
10191;SDS011;17580;50.850;4.504;2023-06-14T13:28:01;3.30;;;3.10;;
10191;SDS011;17580;50.850;4.504;2023-06-14T13:30:28;4.10;;;3.40;;
10191;SDS011;17580;50.850;4.504;2023-06-14T13:32:55;2.93;;;2.83;;
10191;SDS011;17580;50.850;4.504;2023-06-14T13:35:24;2.60;;;2.50;;
10191;SDS011;17580;50.850;4.504;2023-06-14T13:37:51;3.05;;;2.80;;
10191;SDS011;17580;50.850;4.504;2023-06-14T13:40:19;3.63;;;3.07;;
10191;SDS011;17580;50.850;4.504;2023-06-14T13:42:46;2.92;;;2.58;;
10191;SDS011;17580;50.850;4.504;2023-06-14T13:45:14;2.88;;;2.67;;
10191;SDS011;17580;50.850;4.504;2023-06-14T13:47:42;3.20;;;2.70;;
10191;SDS011;17580;50.850;4.504;2023-06-14T13:50:09;4.03;;;3.83;;
10191;SDS011;17580;50.850;4.504;2023-06-14T13:52:39;3.03;;;2.13;;
10191;SDS011;17580;50.850;4.504;2023-06-14T13:55:06;2.57;;;2.37;;
10191;SDS011;17580;50.850;4.504;2023-06-14T13:57:34;2.30;;;2.20;;
10191;SDS011;17580;50.850;4.504;2023-06-14T14:00:02;5.53;;;2.70;;
10191;SDS011;17580;50.850;4.504;2023-06-14T14:02:29;3.17;;;2.97;;
10191;SDS011;17580;50.850;4.504;2023-06-14T14:04:56;2.20;;;2.10;;
10191;SDS011;17580;50.850;4.504;2023-06-14T14:07:25;2.10;;;2.00;;
10191;SDS011;17580;50.850;4.504;2023-06-14T14:09:56;2.70;;;2.23;;
10191;SDS011;17580;50.850;4.504;2023-06-14T14:12:23;4.00;;;2.53;;
10191;SDS011;17580;50.850;4.504;2023-06-14T14:14:50;2.00;;;1.80;;
10191;SDS011;17580;50.850;4.504;2023-06-14T14:17:18;2.33;;;2.17;;
10191;SDS011;17580;50.850;4.504;2023-06-14T14:19:45;1.93;;;1.83;;
10191;SDS011;17580;50.850;4.504;2023-06-14T14:22:12;3.03;;;2.47;;
10191;SDS011;17580;50.850;4.504;2023-06-14T14:24:39;2.37;;;2.27;;
10191;SDS011;17580;50.850;4.504;2023-06-14T14:27:08;2.40;;;2.20;;
10191;SDS011;17580;50.850;4.504;2023-06-14T14:29:35;5.47;;;2.20;;
10191;SDS011;17580;50.850;4.504;2023-06-14T14:32:03;9.20;;;2.13;;
10191;SDS011;17580;50.850;4.504;2023-06-14T14:34:30;2.00;;;1.90;;
10191;SDS011;17580;50.850;4.504;2023-06-14T14:36:57;2.00;;;1.90;;
10191;SDS011;17580;50.850;4.504;2023-06-14T14:39:24;1.60;;;1.60;;
10191;SDS011;17580;50.850;4.504;2023-06-14T14:41:52;2.10;;;1.90;;
10191;SDS011;17580;50.850;4.504;2023-06-14T14:44:21;1.80;;;1.70;;
10191;SDS011;17580;50.850;4.504;2023-06-14T14:46:48;2.80;;;1.83;;
10191;SDS011;17580;50.850;4.504;2023-06-14T14:49:15;1.83;;;1.80;;
10191;SDS011;17580;50.850;4.504;2023-06-14T14:51:42;3.20;;;1.97;;
10191;SDS011;17580;50.850;4.504;2023-06-14T14:54:09;2.07;;;1.90;;
10191;SDS011;17580;50.850;4.504;2023-06-14T14:56:37;2.13;;;2.03;;
10191;SDS011;17580;50.850;4.504;2023-06-14T14:59:04;2.13;;;1.80;;